createdAt,value
2023-04-15T00:01:37.283Z,8.40
2023-04-15T00:04:04.900Z,8.30
2023-04-15T00:06:31.868Z,8.30
2023-04-15T00:09:00.283Z,8.20
2023-04-15T00:11:27.272Z,8.30
2023-04-15T00:13:54.467Z,8.30
2023-04-15T00:16:21.477Z,8.30
2023-04-15T00:18:48.337Z,8.30
2023-04-15T00:21:15.190Z,8.30
2023-04-15T00:23:41.987Z,8.40
2023-04-15T00:26:08.742Z,8.40
2023-04-15T00:28:35.547Z,8.40
2023-04-15T00:31:02.431Z,8.40
2023-04-15T00:33:29.222Z,8.50
2023-04-15T00:35:55.968Z,8.40
2023-04-15T00:38:22.795Z,8.40
2023-04-15T00:40:49.557Z,8.40
2023-04-15T00:43:16.555Z,8.40
2023-04-15T00:45:43.528Z,8.30
2023-04-15T00:48:10.421Z,8.40
2023-04-15T00:50:37.233Z,8.40
2023-04-15T00:53:04.005Z,8.40
2023-04-15T00:55:30.758Z,8.50
2023-04-15T00:57:57.806Z,8.50
2023-04-15T01:00:24.604Z,8.60
2023-04-15T01:02:51.671Z,8.70
2023-04-15T01:05:19.541Z,8.70
2023-04-15T01:07:47.871Z,8.80
2023-04-15T01:10:14.736Z,8.80
2023-04-15T01:12:42.131Z,8.80
2023-04-15T01:15:11.064Z,8.80
2023-04-15T01:17:38.185Z,8.80
2023-04-15T01:20:05.997Z,8.80
2023-04-15T01:22:33.390Z,8.80
2023-04-15T01:25:04.790Z,8.90
2023-04-15T01:27:32.257Z,8.90
2023-04-15T01:29:59.034Z,8.90
2023-04-15T01:32:25.859Z,8.90
2023-04-15T01:34:52.631Z,8.90
2023-04-15T01:37:19.443Z,8.70
2023-04-15T01:39:46.374Z,8.70
2023-04-15T01:42:13.217Z,8.70
2023-04-15T01:44:40.452Z,8.60
2023-04-15T01:47:07.244Z,8.60
2023-04-15T01:49:34.220Z,8.50
2023-04-15T01:52:00.972Z,8.40
2023-04-15T01:54:27.812Z,8.40
2023-04-15T01:56:54.573Z,8.40
2023-04-15T01:59:21.293Z,8.40
2023-04-15T02:01:48.098Z,8.40
2023-04-15T02:04:16.911Z,8.40
2023-04-15T02:06:44.079Z,8.40
2023-04-15T02:09:11.043Z,8.40
2023-04-15T02:11:37.876Z,8.30
2023-04-15T02:14:05.782Z,8.30
2023-04-15T02:16:32.797Z,8.40
2023-04-15T02:19:00.695Z,8.40
2023-04-15T02:21:27.845Z,8.40
2023-04-15T02:23:54.627Z,8.40
2023-04-15T02:26:22.423Z,8.50
2023-04-15T02:28:51.391Z,8.50
2023-04-15T02:31:18.355Z,8.60
2023-04-15T02:33:45.374Z,8.60
2023-04-15T02:36:12.468Z,8.70
2023-04-15T02:38:41.356Z,8.70
2023-04-15T02:41:11.841Z,8.70
2023-04-15T02:43:39.992Z,8.80
2023-04-15T02:46:07.170Z,8.80
2023-04-15T02:48:34.386Z,8.90
2023-04-15T02:51:21.385Z,8.90
2023-04-15T02:53:48.992Z,9.00
2023-04-15T02:56:17.215Z,8.90
2023-04-15T02:58:44.999Z,8.90
2023-04-15T03:01:12.160Z,8.80
2023-04-15T03:03:39.126Z,8.60
2023-04-15T03:06:06.685Z,8.50
2023-04-15T03:08:33.517Z,8.50
2023-04-15T03:11:00.955Z,8.50
2023-04-15T03:13:27.759Z,8.40
2023-04-15T03:15:54.639Z,8.40
2023-04-15T03:18:21.717Z,8.40
2023-04-15T03:20:48.485Z,8.40
2023-04-15T03:23:15.520Z,8.30
2023-04-15T03:25:42.385Z,8.20
2023-04-15T03:28:09.152Z,8.20
2023-04-15T03:30:36.057Z,8.30
2023-04-15T03:33:02.881Z,8.40
2023-04-15T03:35:29.783Z,8.40
2023-04-15T03:37:56.599Z,8.40
2023-04-15T03:40:23.387Z,8.40
2023-04-15T03:42:50.150Z,8.30
2023-04-15T03:45:17.062Z,8.30
2023-04-15T03:47:43.988Z,8.30
2023-04-15T03:50:11.169Z,8.30
2023-04-15T03:52:38.153Z,8.30
2023-04-15T03:55:05.351Z,8.30
2023-04-15T03:57:32.130Z,8.40
2023-04-15T03:59:58.940Z,8.50
2023-04-15T04:02:26.035Z,8.50
2023-04-15T04:04:53.006Z,8.60
2023-04-15T04:07:19.915Z,8.70
2023-04-15T04:09:47.410Z,8.80
2023-04-15T04:12:14.459Z,8.90
2023-04-15T04:14:41.243Z,8.90
2023-04-15T04:17:08.310Z,9.00
2023-04-15T04:19:35.229Z,9.00
2023-04-15T04:22:02.239Z,9.10
2023-04-15T04:24:28.973Z,9.10
2023-04-15T04:26:57.282Z,9.10
2023-04-15T04:29:24.306Z,9.10
2023-04-15T04:31:51.266Z,9.10
2023-04-15T04:34:18.135Z,9.10
2023-04-15T04:36:44.933Z,9.20
2023-04-15T04:39:11.841Z,9.20
2023-04-15T04:41:38.640Z,9.20
2023-04-15T04:44:05.469Z,9.30
2023-04-15T04:46:32.226Z,9.30
2023-04-15T04:48:59.023Z,9.20
2023-04-15T04:51:26.373Z,9.10
2023-04-15T04:53:53.178Z,9.10
2023-04-15T04:56:20.019Z,9.10
2023-04-15T04:58:46.898Z,9.20
2023-04-15T05:01:13.793Z,9.30
2023-04-15T05:03:40.706Z,9.30
2023-04-15T05:06:08.818Z,9.40
2023-04-15T05:08:36.123Z,9.50
2023-04-15T05:11:03.539Z,9.50
2023-04-15T05:13:30.338Z,9.50
2023-04-15T05:15:57.269Z,9.50
2023-04-15T05:18:24.300Z,9.50
2023-04-15T05:20:51.128Z,9.50
2023-04-15T05:23:17.873Z,9.50
2023-04-15T05:25:45.152Z,9.50
2023-04-15T05:28:12.556Z,9.70
2023-04-15T05:30:39.825Z,9.70
2023-04-15T05:33:06.587Z,9.80
2023-04-15T05:35:33.402Z,9.80
2023-04-15T05:38:00.596Z,9.80
2023-04-15T05:40:28.052Z,9.90
2023-04-15T05:42:54.902Z,10.00
2023-04-15T05:45:21.714Z,10.20
2023-04-15T05:47:51.004Z,10.50
2023-04-15T05:50:17.919Z,10.50
2023-04-15T05:52:45.905Z,10.60
2023-04-15T05:55:12.776Z,10.90
2023-04-15T05:57:39.575Z,11.50
2023-04-15T06:00:07.048Z,11.90
2023-04-15T06:02:33.972Z,12.20
2023-04-15T06:05:01.400Z,12.40
2023-04-15T06:07:28.294Z,12.50
2023-04-15T06:09:55.188Z,12.40
2023-04-15T06:12:22.045Z,12.30
2023-04-15T06:14:48.882Z,12.20
2023-04-15T06:17:18.539Z,12.10
2023-04-15T06:19:45.448Z,12.40
2023-04-15T06:22:12.249Z,12.60
2023-04-15T06:24:39.008Z,12.90
2023-04-15T06:27:05.898Z,13.00
2023-04-15T06:29:32.741Z,13.00
2023-04-15T06:31:59.614Z,12.90
2023-04-15T06:34:26.460Z,12.80
2023-04-15T06:36:54.664Z,12.60
2023-04-15T06:39:21.419Z,12.50
2023-04-15T06:41:48.216Z,12.60
2023-04-15T06:44:15.109Z,12.70
2023-04-15T06:46:42.038Z,12.90
2023-04-15T06:49:08.831Z,13.00
2023-04-15T06:51:36.298Z,13.10
2023-04-15T06:54:05.961Z,13.20
2023-04-15T06:56:33.626Z,13.40
2023-04-15T06:59:00.905Z,13.50
2023-04-15T07:01:27.856Z,13.70
2023-04-15T07:03:54.844Z,14.00
2023-04-15T07:06:22.240Z,14.30
2023-04-15T07:08:48.973Z,14.50
2023-04-15T07:11:15.859Z,14.70
2023-04-15T07:13:42.667Z,15.00
2023-04-15T07:16:09.477Z,15.10
2023-04-15T07:18:36.334Z,15.30
2023-04-15T07:21:03.251Z,15.60
2023-04-15T07:23:29.975Z,15.70
2023-04-15T07:25:57.430Z,15.80
2023-04-15T07:28:24.311Z,15.90
2023-04-15T07:30:51.215Z,15.90
2023-04-15T07:33:18.055Z,15.70
2023-04-15T07:35:45.371Z,15.50
2023-04-15T07:38:15.065Z,15.50
2023-04-15T07:40:42.424Z,15.80
2023-04-15T07:43:09.901Z,16.20
2023-04-15T07:45:36.738Z,16.50
2023-04-15T07:48:03.883Z,16.80
2023-04-15T07:50:30.823Z,17.30
2023-04-15T07:52:57.710Z,17.80
2023-04-15T07:55:25.359Z,18.20
2023-04-15T07:57:52.970Z,19.40
2023-04-15T08:00:20.169Z,20.30
2023-04-15T08:02:48.500Z,20.40
2023-04-15T08:05:15.905Z,19.90
2023-04-15T08:07:42.651Z,19.20
2023-04-15T08:10:10.089Z,18.60
2023-04-15T08:12:37.254Z,18.10
2023-04-15T08:15:04.502Z,17.90
2023-04-15T08:17:31.432Z,19.20
2023-04-15T08:19:58.257Z,21.00
2023-04-15T08:22:25.412Z,22.60
2023-04-15T08:24:52.204Z,23.60
2023-04-15T08:27:19.748Z,23.60
2023-04-15T08:29:47.230Z,23.50
2023-04-15T08:32:14.097Z,24.40
2023-04-15T08:34:40.962Z,24.30
2023-04-15T08:37:08.256Z,24.70
2023-04-15T08:39:35.232Z,24.90
2023-04-15T08:42:03.566Z,24.30
2023-04-15T08:44:32.085Z,23.10
2023-04-15T08:47:01.380Z,22.70
2023-04-15T08:49:28.654Z,23.40
2023-04-15T08:51:56.750Z,25.10
2023-04-15T08:54:23.608Z,26.40
2023-04-15T08:56:50.445Z,26.60
2023-04-15T08:59:18.016Z,25.90
2023-04-15T09:01:44.823Z,24.40
2023-04-15T09:04:12.616Z,23.00
2023-04-15T09:06:40.184Z,21.80
2023-04-15T09:09:06.915Z,21.00
2023-04-15T09:11:33.800Z,20.70
2023-04-15T09:14:00.523Z,21.40
2023-04-15T09:16:27.556Z,22.30
2023-04-15T09:18:54.496Z,22.80
2023-04-15T09:21:21.392Z,23.90
2023-04-15T09:23:59.132Z,24.40
2023-04-15T09:26:36.285Z,24.70
2023-04-15T09:29:15.121Z,25.20
2023-04-15T09:31:42.580Z,25.10
2023-04-15T09:34:09.362Z,24.80
2023-04-15T09:36:50.943Z,24.60
2023-04-15T09:39:18.069Z,24.10
2023-04-15T09:41:45.181Z,23.60
2023-04-15T09:44:24.757Z,23.20
2023-04-15T09:46:51.537Z,22.90
2023-04-15T09:49:18.488Z,23.30
2023-04-15T09:51:57.649Z,24.20
2023-04-15T09:54:37.972Z,25.40
2023-04-15T09:57:12.273Z,26.70
2023-04-15T09:59:39.063Z,27.30
2023-04-15T10:02:08.725Z,28.00
2023-04-15T10:04:37.112Z,28.50
2023-04-15T10:07:05.312Z,27.80
2023-04-15T10:09:33.575Z,26.40
2023-04-15T10:12:01.280Z,25.90
2023-04-15T10:14:29.320Z,25.50
2023-04-15T10:16:56.478Z,25.50
2023-04-15T10:19:23.379Z,25.30
2023-04-15T10:21:50.285Z,25.20
2023-04-15T10:24:16.948Z,25.20
2023-04-15T10:26:43.901Z,25.00
2023-04-15T10:29:10.725Z,24.60
2023-04-15T10:31:38.451Z,24.10
2023-04-15T10:34:06.618Z,23.80
2023-04-15T10:36:33.931Z,23.50
2023-04-15T10:39:01.419Z,22.90
2023-04-15T10:41:31.337Z,22.30
2023-04-15T10:44:05.035Z,21.80
2023-04-15T10:46:38.680Z,21.70
2023-04-15T10:49:16.359Z,21.40
2023-04-15T10:51:44.820Z,21.10
2023-04-15T10:54:24.259Z,21.10
2023-04-15T10:57:06.648Z,21.20
2023-04-15T10:59:36.208Z,21.30
2023-04-15T11:02:07.360Z,21.50
2023-04-15T11:05:07.404Z,21.80
2023-04-15T11:07:55.742Z,22.00
2023-04-15T11:10:26.015Z,22.00
2023-04-15T11:12:54.216Z,22.00
2023-04-15T11:15:33.979Z,22.00
2023-04-15T11:18:09.939Z,22.00
2023-04-15T11:20:37.242Z,21.80
2023-04-15T11:23:14.730Z,21.70
2023-04-15T11:25:43.307Z,21.80
2023-04-15T11:28:10.997Z,22.00
2023-04-15T11:30:38.055Z,22.10
2023-04-15T11:33:09.375Z,22.10
2023-04-15T11:35:36.387Z,22.30
2023-04-15T11:38:04.217Z,22.40
2023-04-15T11:40:31.557Z,22.70
2023-04-15T11:43:24.399Z,22.70
2023-04-15T11:45:56.455Z,22.80
2023-04-15T11:48:27.527Z,22.70
2023-04-15T11:50:55.543Z,22.30
2023-04-15T11:53:22.679Z,21.70
2023-04-15T11:55:53.526Z,21.30
2023-04-15T11:58:22.455Z,21.10
2023-04-15T12:00:58.894Z,21.00
2023-04-15T12:03:30.528Z,20.80
2023-04-15T12:06:21.319Z,20.50
2023-04-15T12:09:06.420Z,20.20
2023-04-15T12:11:38.326Z,20.00
2023-04-15T12:14:16.930Z,19.70
2023-04-15T12:16:48.719Z,19.70
2023-04-15T12:19:41.873Z,19.80
2023-04-15T12:22:15.286Z,20.10
2023-04-15T12:24:44.306Z,20.20
2023-04-15T12:27:15.173Z,20.30
2023-04-15T12:29:43.206Z,20.40
2023-04-15T12:32:14.163Z,20.40
2023-04-15T12:34:50.209Z,20.60
2023-04-15T12:37:17.231Z,20.90
2023-04-15T12:39:45.263Z,21.20
2023-04-15T12:42:12.175Z,21.50
2023-04-15T12:44:39.273Z,21.80
2023-04-15T12:47:06.629Z,21.50
2023-04-15T12:49:33.661Z,21.30
2023-04-15T12:52:01.311Z,21.30
2023-04-15T12:54:28.919Z,21.60
2023-04-15T12:56:55.859Z,21.80
2023-04-15T12:59:24.392Z,22.10
2023-04-15T13:01:52.385Z,22.20
2023-04-15T13:04:19.734Z,22.10
2023-04-15T13:06:46.544Z,22.10
2023-04-15T13:09:13.347Z,22.00
2023-04-15T13:11:40.116Z,21.50
2023-04-15T13:14:08.219Z,21.30
2023-04-15T13:16:35.175Z,21.20
2023-04-15T13:19:02.547Z,21.10
2023-04-15T13:21:29.381Z,20.90
2023-04-15T13:23:56.230Z,20.80
2023-04-15T13:26:23.214Z,20.70
2023-04-15T13:28:50.049Z,20.50
2023-04-15T13:31:17.142Z,20.20
2023-04-15T13:33:43.942Z,20.20
2023-04-15T13:36:10.878Z,20.30
2023-04-15T13:38:37.640Z,20.50
2023-04-15T13:41:04.455Z,20.60
2023-04-15T13:43:33.710Z,20.70
2023-04-15T13:46:00.637Z,20.70
2023-04-15T13:48:28.177Z,20.70
2023-04-15T13:50:55.029Z,20.70
2023-04-15T13:53:21.772Z,20.70
2023-04-15T13:56:02.926Z,20.50
2023-04-15T13:58:29.791Z,20.30
2023-04-15T14:00:56.846Z,20.10
2023-04-15T14:03:23.757Z,20.10
2023-04-15T14:05:55.885Z,20.10
2023-04-15T14:08:23.182Z,20.10
2023-04-15T14:10:50.096Z,20.00
2023-04-15T14:13:16.952Z,20.10
2023-04-15T14:15:43.747Z,20.20
2023-04-15T14:18:10.549Z,20.30
2023-04-15T14:20:37.371Z,20.20
2023-04-15T14:23:04.160Z,20.10
2023-04-15T14:25:34.046Z,20.00
2023-04-15T14:28:01.563Z,20.00
2023-04-15T14:30:28.398Z,20.10
2023-04-15T14:32:55.336Z,20.10
2023-04-15T14:35:22.128Z,19.90
2023-04-15T14:37:48.901Z,19.90
2023-04-15T14:40:15.684Z,19.90
2023-04-15T14:42:42.491Z,19.90
2023-04-15T14:45:10.050Z,19.90
2023-04-15T14:47:36.925Z,19.90
2023-04-15T14:50:04.123Z,19.90
2023-04-15T14:52:32.989Z,20.00
2023-04-15T14:54:59.890Z,20.00
2023-04-15T14:57:26.658Z,20.00
2023-04-15T14:59:56.602Z,20.00
2023-04-15T15:02:37.221Z,20.00
2023-04-15T15:05:06.207Z,19.90
2023-04-15T15:07:33.187Z,19.80
2023-04-15T15:09:59.961Z,19.70
2023-04-15T15:12:26.789Z,19.60
2023-04-15T15:14:54.675Z,19.60
2023-04-15T15:17:21.756Z,19.50
2023-04-15T15:19:48.724Z,19.60
2023-04-15T15:22:15.685Z,19.50
2023-04-15T15:24:42.459Z,19.50
2023-04-15T15:27:09.607Z,19.50
2023-04-15T15:29:37.443Z,19.40
2023-04-15T15:32:04.271Z,19.40
2023-04-15T15:34:31.032Z,19.40
2023-04-15T15:36:57.935Z,19.40
2023-04-15T15:39:24.711Z,19.40
2023-04-15T15:41:51.486Z,19.30
2023-04-15T15:44:18.304Z,19.30
2023-04-15T15:46:45.238Z,19.30
2023-04-15T15:49:11.999Z,19.30
2023-04-15T15:51:38.846Z,19.20
2023-04-15T15:54:05.948Z,19.20
2023-04-15T15:56:33.260Z,19.20
2023-04-15T15:59:00.074Z,19.10
2023-04-15T16:01:26.913Z,19.10
2023-04-15T16:03:53.971Z,19.00
2023-04-15T16:06:21.140Z,19.00
2023-04-15T16:08:47.919Z,19.00
2023-04-15T16:11:14.864Z,18.90
2023-04-15T16:13:41.798Z,18.80
2023-04-15T16:16:08.674Z,18.80
2023-04-15T16:18:35.583Z,18.70
2023-04-15T16:21:02.409Z,18.70
2023-04-15T16:23:29.235Z,18.70
2023-04-15T16:25:56.145Z,18.60
2023-04-15T16:28:26.897Z,18.60
2023-04-15T16:30:54.319Z,18.50
2023-04-15T16:33:21.118Z,18.50
2023-04-15T16:35:47.905Z,18.50
2023-04-15T16:38:14.702Z,18.40
2023-04-15T16:40:41.559Z,18.40
2023-04-15T16:43:11.153Z,18.30
2023-04-15T16:45:38.183Z,18.30
2023-04-15T16:48:05.193Z,18.20
2023-04-15T16:50:32.061Z,18.10
2023-04-15T16:52:58.800Z,18.00
2023-04-15T16:55:25.722Z,17.90
2023-04-15T16:58:02.305Z,17.80
2023-04-15T17:00:31.200Z,17.80
2023-04-15T17:02:58.881Z,17.70
2023-04-15T17:05:27.734Z,17.60
2023-04-15T17:07:55.026Z,17.50
2023-04-15T17:10:21.974Z,17.40
2023-04-15T17:12:49.763Z,17.30
2023-04-15T17:15:16.629Z,17.00
2023-04-15T17:17:43.511Z,16.90
2023-04-15T17:20:11.215Z,16.70
2023-04-15T17:22:38.180Z,16.60
2023-04-15T17:25:05.414Z,16.50
2023-04-15T17:27:32.243Z,16.40
2023-04-15T17:29:59.053Z,16.20
2023-04-15T17:32:31.751Z,16.10
2023-04-15T17:34:58.810Z,16.00
2023-04-15T17:37:25.689Z,15.90
2023-04-15T17:39:52.713Z,15.80
2023-04-15T17:42:19.618Z,15.60
2023-04-15T17:44:46.380Z,15.60
2023-04-15T17:47:13.220Z,15.60
2023-04-15T17:49:40.041Z,15.60
2023-04-15T17:52:06.841Z,15.60
2023-04-15T17:54:33.999Z,15.70
2023-04-15T17:57:01.382Z,15.70
2023-04-15T17:59:28.195Z,15.60
2023-04-15T18:01:55.546Z,15.50
2023-04-15T18:04:25.827Z,15.50
2023-04-15T18:06:53.272Z,15.50
2023-04-15T18:09:20.348Z,15.60
2023-04-15T18:11:48.387Z,15.60
2023-04-15T18:14:26.644Z,15.60
2023-04-15T18:17:00.627Z,15.60
2023-04-15T18:19:27.826Z,15.60
2023-04-15T18:21:54.621Z,15.60
2023-04-15T18:24:22.145Z,15.70
2023-04-15T18:26:49.291Z,15.70
2023-04-15T18:29:16.405Z,15.70
2023-04-15T18:31:43.405Z,15.60
2023-04-15T18:34:10.272Z,15.50
2023-04-15T18:36:37.121Z,15.50
2023-04-15T18:39:04.451Z,15.50
2023-04-15T18:41:31.389Z,15.40
2023-04-15T18:43:58.164Z,15.40
2023-04-15T18:46:24.975Z,15.40
2023-04-15T18:48:51.746Z,15.40
2023-04-15T18:51:18.574Z,15.30
2023-04-15T18:53:45.629Z,15.30
2023-04-15T18:56:12.378Z,15.20
2023-04-15T18:59:18.426Z,15.10
2023-04-15T19:01:26.414Z,15.10
2023-04-15T19:03:53.333Z,15.00
2023-04-15T19:06:20.315Z,15.00
2023-04-15T19:08:47.417Z,14.80
2023-04-15T19:11:14.262Z,14.80
2023-04-15T19:13:41.082Z,14.80
2023-04-15T19:16:08.044Z,14.80
2023-04-15T19:18:34.867Z,14.70
2023-04-15T19:21:01.640Z,14.70
2023-04-15T19:23:28.513Z,14.60
2023-04-15T19:25:55.490Z,14.50
2023-04-15T19:28:22.280Z,14.30
2023-04-15T19:30:49.115Z,14.10
2023-04-15T19:33:16.031Z,14.00
2023-04-15T19:35:43.080Z,13.90
2023-04-15T19:38:09.896Z,13.90
2023-04-15T19:40:36.708Z,13.80
2023-04-15T19:43:03.624Z,13.80
2023-04-15T19:45:31.413Z,13.70
2023-04-15T19:47:58.246Z,13.60
2023-04-15T19:50:26.426Z,13.60
2023-04-15T19:52:53.711Z,13.70
2023-04-15T19:55:20.507Z,13.80
2023-04-15T19:57:47.547Z,13.70
2023-04-15T20:00:14.451Z,13.70
2023-04-15T20:02:41.365Z,13.50
2023-04-15T20:05:09.964Z,13.30
2023-04-15T20:07:36.966Z,13.30
2023-04-15T20:10:12.088Z,13.20
2023-04-15T20:12:51.087Z,13.30
2023-04-15T20:15:19.849Z,13.40
2023-04-15T20:17:46.740Z,13.50
2023-04-15T20:20:13.584Z,13.70
2023-04-15T20:22:41.052Z,13.70
2023-04-15T20:25:08.152Z,13.70
2023-04-15T20:27:35.072Z,13.80
2023-04-15T20:30:03.368Z,13.80
2023-04-15T20:32:32.744Z,13.80
2023-04-15T20:34:59.598Z,13.80
2023-04-15T20:37:26.349Z,13.70
2023-04-15T20:39:53.374Z,13.50
2023-04-15T20:42:20.275Z,13.50
2023-04-15T20:44:47.120Z,13.50
2023-04-15T20:47:14.004Z,13.40
2023-04-15T20:49:40.772Z,13.30
2023-04-15T20:52:07.909Z,13.30
2023-04-15T20:54:34.744Z,13.20
2023-04-15T20:57:01.774Z,13.10
2023-04-15T20:59:28.609Z,13.10
2023-04-15T21:01:57.108Z,13.10
2023-04-15T21:04:24.683Z,13.10
2023-04-15T21:06:52.340Z,13.10
2023-04-15T21:09:19.217Z,13.20
2023-04-15T21:12:00.571Z,13.20
2023-04-15T21:14:28.224Z,13.20
2023-04-15T21:16:55.356Z,13.20
2023-04-15T21:19:22.082Z,13.10
2023-04-15T21:21:48.828Z,13.00
2023-04-15T21:24:15.694Z,12.90
2023-04-15T21:26:42.566Z,12.80
2023-04-15T21:29:11.458Z,12.70
2023-04-15T21:31:38.763Z,12.60
2023-04-15T21:34:05.759Z,12.50
2023-04-15T21:36:32.605Z,12.50
2023-04-15T21:38:59.527Z,12.50
2023-04-15T21:41:26.725Z,12.60
2023-04-15T21:43:53.714Z,12.60
2023-04-15T21:46:23.469Z,12.60
2023-04-15T21:48:53.172Z,12.50
2023-04-15T21:51:20.030Z,12.20
2023-04-15T21:53:46.738Z,11.90
2023-04-15T21:56:13.514Z,11.90
2023-04-15T21:58:40.447Z,11.80
2023-04-15T22:01:07.209Z,11.90
2023-04-15T22:03:34.644Z,11.80
2023-04-15T22:06:04.622Z,11.90
2023-04-15T22:08:38.752Z,12.00
2023-04-15T22:11:20.982Z,12.00
2023-04-15T22:13:47.773Z,12.10
2023-04-15T22:16:14.646Z,12.20
2023-04-15T22:18:41.501Z,12.30
2023-04-15T22:21:08.523Z,12.30
2023-04-15T22:23:35.311Z,12.30
2023-04-15T22:26:02.195Z,12.30
2023-04-15T22:28:29.038Z,12.30
2023-04-15T22:30:57.923Z,12.30
2023-04-15T22:33:24.747Z,12.30
2023-04-15T22:35:51.552Z,12.30
2023-04-15T22:38:18.330Z,12.20
2023-04-15T22:40:46.387Z,12.10
2023-04-15T22:43:13.184Z,11.90
2023-04-15T22:45:39.934Z,11.90
2023-04-15T22:48:06.817Z,11.80
2023-04-15T22:50:33.668Z,11.80
2023-04-15T22:53:00.601Z,11.80
2023-04-15T22:55:27.499Z,11.90
2023-04-15T22:57:54.353Z,11.80
2023-04-15T23:00:21.150Z,11.70
2023-04-15T23:02:47.955Z,11.70
2023-04-15T23:05:14.843Z,11.70
2023-04-15T23:07:41.738Z,11.70
2023-04-15T23:10:09.089Z,11.80
2023-04-15T23:12:36.031Z,11.80
2023-04-15T23:15:03.621Z,11.80
2023-04-15T23:17:30.489Z,11.70
2023-04-15T23:19:57.332Z,11.70
2023-04-15T23:22:24.151Z,11.60
2023-04-15T23:24:51.139Z,11.60
2023-04-15T23:27:19.080Z,11.60
2023-04-15T23:29:46.102Z,11.60
2023-04-15T23:32:12.920Z,11.60
2023-04-15T23:34:39.619Z,11.50
2023-04-15T23:37:06.385Z,11.50
2023-04-15T23:39:33.213Z,11.60
2023-04-15T23:41:59.972Z,11.60
2023-04-15T23:44:27.058Z,11.60
2023-04-15T23:46:53.882Z,11.50
2023-04-15T23:49:20.784Z,11.50
2023-04-15T23:51:47.541Z,11.50
2023-04-15T23:54:14.899Z,11.40
2023-04-15T23:56:41.720Z,11.40
2023-04-15T23:59:08.998Z,11.40
